Time;durP1;ratioP1;P1;durP2;ratioP2;P2;SDS_P1;SDS_P2;PMS_P1;PMS_P2;Temp;Humidity;BMP_temperature;BMP_pressure;BME280_temperature;BME280_humidity;BME280_pressure;Samples;Min_cycle;Max_cycle;Signal;HPM_P1;HPM_P2
2024/03/21 00:01:49;;;;;;;9.47;1.60;;;;;;;-145.69;68.84;52315.66;5114384;28;20197;-79
2024/03/21 00:04:17;;;;;;;5.90;1.60;;;;;;;-145.69;68.71;52278.03;5114442;28;20200;-78
2024/03/21 00:06:43;;;;;;;5.53;1.63;;;;;;;-145.69;69.02;52299.81;5114511;28;20660;-79
2024/03/21 00:09:09;;;;;;;2.80;1.70;;;;;;;-145.69;69.18;52297.84;5114377;28;20211;-78
2024/03/21 00:11:35;;;;;;;5.23;1.73;;;;;;;-145.69;69.04;52307.75;5114292;28;20197;-79
2024/03/21 00:14:01;;;;;;;2.57;1.60;;;;;;;-145.69;68.94;52295.84;5114622;28;20193;-79
2024/03/21 00:16:27;;;;;;;2.13;1.60;;;;;;;-145.69;68.99;52311.69;5114269;28;20229;-79
2024/03/21 00:18:53;;;;;;;7.77;1.90;;;;;;;-145.69;68.32;52291.91;5114526;28;20280;-79
2024/03/21 00:21:20;;;;;;;2.73;1.40;;;;;;;-145.69;69.21;52321.59;5130448;27;20197;-79
2024/03/21 00:23:47;;;;;;;2.37;1.57;;;;;;;-145.69;68.17;52278.03;5134376;27;20197;-78
2024/03/21 00:26:14;;;;;;;3.17;1.70;;;;;;;-145.69;68.00;52341.41;5134509;27;20608;-79
2024/03/21 00:28:41;;;;;;;4.13;2.13;;;;;;;-145.69;70.15;52317.66;5126232;27;20293;-79
2024/03/21 00:31:06;;;;;;;1.70;1.60;;;;;;;-145.69;68.84;52321.59;5114252;28;20254;-79
2024/03/21 00:33:33;;;;;;;3.67;1.70;;;;;;;-145.69;68.62;52309.72;5113692;28;20197;-79
2024/03/21 00:35:59;;;;;;;5.13;1.77;;;;;;;-145.69;68.87;52303.78;5113942;28;20229;-80
2024/03/21 00:38:26;;;;;;;2.53;1.80;;;;;;;-145.69;69.39;52293.88;5113804;28;20207;-78
2024/03/21 00:40:52;;;;;;;1.87;1.53;;;;;;;-145.69;69.21;52319.63;5114018;28;20204;-79
2024/03/21 00:43:19;;;;;;;3.10;1.70;;;;;;;-145.69;69.36;52303.78;5113909;28;20193;-78
2024/03/21 00:45:46;;;;;;;2.30;1.47;;;;;;;-145.69;70.06;52301.81;5113256;28;20205;-79
2024/03/21 00:48:13;;;;;;;4.47;1.60;;;;;;;-145.69;69.91;52297.84;5114055;28;20229;-79
2024/03/21 00:50:38;;;;;;;4.77;1.77;;;;;;;-145.69;70.54;52291.91;5113801;28;20599;-79
2024/03/21 00:53:05;;;;;;;5.57;1.70;;;;;;;-145.69;70.28;52307.75;5113789;28;20269;-79
2024/03/21 00:55:32;;;;;;;1.70;1.40;;;;;;;-145.69;70.23;52303.78;5113758;28;20225;-78
2024/03/21 00:57:59;;;;;;;2.17;1.60;;;;;;;-145.69;70.43;52313.69;5113732;28;20212;-79
2024/03/21 01:00:25;;;;;;;2.73;1.60;;;;;;;-145.69;69.90;52305.75;5113509;28;20198;-78
2024/03/21 01:02:51;;;;;;;3.27;1.63;;;;;;;-145.69;72.16;52293.88;5113669;28;20295;-79
2024/03/21 01:05:18;;;;;;;6.20;2.40;;;;;;;-145.69;71.30;52303.78;5117222;27;20288;-78
2024/03/21 01:07:47;;;;;;;3.90;2.03;;;;;;;-145.69;71.63;52305.75;5113560;28;20197;-80
2024/03/21 01:10:13;;;;;;;3.73;1.87;;;;;;;-145.69;71.48;52254.28;5113237;28;20295;-79
2024/03/21 01:12:41;;;;;;;3.63;1.80;;;;;;;-145.69;71.15;52321.59;5112711;27;20285;-79
2024/03/21 01:15:08;;;;;;;3.87;2.10;;;;;;;-145.69;71.59;52303.78;5112786;28;20583;-78
2024/03/21 01:17:34;;;;;;;2.17;1.57;;;;;;;-145.69;71.10;52341.41;5100528;28;20206;-79
2024/03/21 01:20:00;;;;;;;2.10;1.60;;;;;;;-145.69;71.30;52297.84;5093115;28;20284;-80
2024/03/21 01:22:27;;;;;;;5.93;2.00;;;;;;;-145.69;71.58;52246.34;5106264;28;20616;-79
2024/03/21 01:24:52;;;;;;;2.73;1.77;;;;;;;-145.69;71.74;52280.00;5132779;27;20196;-80
2024/03/21 01:27:19;;;;;;;3.40;1.77;;;;;;;-145.69;72.19;52329.53;5133666;27;20283;-78
2024/03/21 01:29:46;;;;;;;4.17;1.87;;;;;;;-145.69;72.75;52303.78;5133611;27;20659;-79
2024/03/21 01:32:13;;;;;;;4.87;2.23;;;;;;;-145.69;73.35;52309.72;5114988;27;20190;-78
2024/03/21 01:34:39;;;;;;;2.10;1.63;;;;;;;-145.69;72.84;52283.97;5113118;28;20212;-79
2024/03/21 01:37:05;;;;;;;4.40;2.53;;;;;;;-145.69;72.48;52303.78;5113016;28;20225;-78
2024/03/21 01:39:31;;;;;;;2.73;2.03;;;;;;;-145.69;72.19;52274.06;5112912;28;20727;-79
2024/03/21 01:41:58;;;;;;;5.63;1.93;;;;;;;-145.69;71.99;52295.84;5112894;28;20280;-78
2024/03/21 01:44:23;;;;;;;8.07;2.00;;;;;;;-145.69;71.84;52270.13;5113135;28;20209;-78
2024/03/21 01:46:52;;;;;;;2.33;1.70;;;;;;;-145.69;71.52;52307.75;5113114;28;20201;-79
2024/03/21 01:49:17;;;;;;;5.77;1.80;;;;;;;-145.69;71.30;52323.59;5112518;28;20229;-81
2024/03/21 01:51:47;;;;;;;5.00;2.30;;;;;;;-145.69;71.28;52325.56;5112829;28;20701;-80
2024/03/21 01:54:14;;;;;;;3.67;2.10;;;;;;;-145.69;70.75;52301.81;5112167;28;20197;-80
2024/03/21 01:56:41;;;;;;;2.57;2.00;;;;;;;-145.69;71.37;52305.75;5113095;28;20233;-80
2024/03/21 01:59:07;;;;;;;2.67;1.83;;;;;;;-145.69;70.91;52325.56;5116299;28;20208;-80
2024/03/21 02:01:36;;;;;;;3.20;2.23;;;;;;;-145.69;71.47;52276.06;5116899;28;20198;-81
2024/03/21 02:04:05;;;;;;;1.60;1.40;;;;;;;-145.69;71.92;52307.75;5116947;28;20222;-81
2024/03/21 02:06:33;;;;;;;3.23;2.30;;;;;;;-145.69;71.89;52289.91;5116990;28;20582;-79
2024/03/21 02:09:01;;;;;;;5.10;1.70;;;;;;;-145.69;71.62;52276.06;5116240;28;20644;-80
2024/03/21 02:11:28;;;;;;;4.80;1.90;;;;;;;-145.69;70.91;52295.84;5117170;28;20292;-80
2024/03/21 02:13:55;;;;;;;4.83;2.10;;;;;;;-145.69;71.17;52274.06;5116752;28;20197;-80
2024/03/21 02:16:23;;;;;;;3.27;1.90;;;;;;;-145.69;71.17;52282.00;5116707;28;20332;-79
2024/03/21 02:18:49;;;;;;;3.83;1.70;;;;;;;-145.69;70.90;52299.81;5116740;28;20202;-80
2024/03/21 02:24:02;;;;;;;3.03;1.90;;;;;;;-145.69;70.16;52323.59;5127640;27;20206;-79
2024/03/21 02:26:28;;;;;;;3.47;1.70;;;;;;;-145.69;70.21;52313.69;5136723;27;20240;-80
2024/03/21 02:28:55;;;;;;;5.10;1.70;;;;;;;-145.69;70.33;52293.88;5136870;27;20236;-81
2024/03/21 02:31:21;;;;;;;5.67;2.23;;;;;;;-145.69;69.64;52293.88;5137168;27;20715;-80
2024/03/21 02:33:48;;;;;;;2.70;1.80;;;;;;;-145.69;69.51;52287.94;5136853;27;20651;-79
2024/03/21 02:36:13;;;;;;;3.73;2.10;;;;;;;-145.69;69.64;52303.78;5137023;27;20239;-80
2024/03/21 02:38:40;;;;;;;2.83;1.60;;;;;;;-145.69;69.57;52305.75;5125286;27;20280;-79
2024/03/21 02:41:07;;;;;;;3.90;1.50;;;;;;;-145.69;69.07;52307.75;5116076;28;20691;-80
2024/03/21 02:43:34;;;;;;;2.87;1.60;;;;;;;-145.69;68.91;52289.91;5116037;28;20198;-80
2024/03/21 02:46:00;;;;;;;2.07;1.80;;;;;;;-145.69;68.77;52297.84;5115848;28;20204;-79
2024/03/21 02:48:28;;;;;;;7.40;1.97;;;;;;;-145.69;69.02;52305.75;5116011;28;20248;-80
2024/03/21 02:50:54;;;;;;;3.30;1.50;;;;;;;-145.69;68.36;52299.81;5115677;28;20607;-80
2024/03/21 02:53:20;;;;;;;7.27;1.97;;;;;;;-145.69;68.92;52311.69;5119497;28;20193;-79
2024/03/21 02:55:46;;;;;;;3.30;1.77;;;;;;;-145.69;69.39;52280.00;5135267;28;20229;-80
2024/03/21 02:58:13;;;;;;;4.80;1.70;;;;;;;-145.69;69.61;52307.75;5135402;27;20643;-80
2024/03/21 03:00:39;;;;;;;4.13;2.30;;;;;;;-145.69;69.88;52293.88;5135254;28;20200;-80
2024/03/21 03:03:07;;;;;;;2.00;1.57;;;;;;;-145.69;69.64;52266.16;5134666;28;20647;-79
2024/03/21 03:05:39;;;;;;;3.00;1.67;;;;;;;-145.69;69.16;52258.22;5135165;28;20205;-79
2024/03/21 03:08:05;;;;;;;3.57;1.80;;;;;;;-145.69;68.66;52274.06;5124983;28;20311;-79
2024/03/21 03:10:31;;;;;;;3.67;2.03;;;;;;;-145.69;68.95;52276.06;5108585;28;20864;-78
2024/03/21 03:12:57;;;;;;;4.38;2.10;;;;;;;-145.69;67.67;52305.75;5114040;28;20194;-79
2024/03/21 03:15:24;;;;;;;5.33;1.90;;;;;;;-145.69;68.45;52280.00;5114253;28;20221;-79
2024/03/21 03:17:51;;;;;;;7.53;1.80;;;;;;;-145.69;67.90;52291.91;5114180;28;20837;-79
2024/03/21 03:20:17;;;;;;;2.20;1.70;;;;;;;-145.69;67.94;52280.00;5114199;28;20189;-79
2024/03/21 03:22:43;;;;;;;3.90;2.07;;;;;;;-145.69;67.65;52278.03;5114075;28;20548;-79
2024/03/21 03:25:09;;;;;;;3.15;1.85;;;;;;;-145.69;67.78;52283.97;5113441;28;20190;-79
2024/03/21 03:27:35;;;;;;;3.08;2.00;;;;;;;-145.69;68.07;52285.97;5114302;28;20212;-79
2024/03/21 03:30:00;;;;;;;3.38;2.10;;;;;;;-145.69;67.15;52262.19;5114409;28;20678;-79
2024/03/21 03:32:30;;;;;;;5.72;1.92;;;;;;;-145.69;67.31;52242.38;5114174;28;20205;-79
2024/03/21 03:37:41;;;;;;;2.10;1.65;;;;;;;-145.69;67.14;52250.31;5114147;28;20200;-79
2024/03/21 03:40:09;;;;;;;1.85;1.48;;;;;;;-145.69;67.40;52285.97;5113917;28;20197;-79
2024/03/21 03:42:36;;;;;;;2.85;2.00;;;;;;;-145.69;67.82;52285.97;5113821;28;20213;-79
2024/03/21 03:45:03;;;;;;;6.68;1.90;;;;;;;-145.69;67.77;52266.16;5114069;28;20670;-79
2024/03/21 03:47:30;;;;;;;4.32;1.63;;;;;;;-145.69;68.00;52252.28;5114165;28;20274;-79
2024/03/21 03:49:56;;;;;;;2.67;1.48;;;;;;;-145.69;67.93;52280.00;5114025;28;20224;-79
2024/03/21 03:52:22;;;;;;;3.55;1.50;;;;;;;-145.69;68.07;52280.00;5076444;28;1081548;-79
2024/03/21 03:54:48;;;;;;;2.47;1.70;;;;;;;-145.69;67.36;52262.19;5114422;28;20189;-79
2024/03/21 03:57:14;;;;;;;2.70;1.60;;;;;;;-145.69;67.10;52224.56;5114500;28;20304;-80
2024/03/21 03:59:40;;;;;;;6.57;1.58;;;;;;;-145.69;67.40;52305.75;5114701;28;20280;-81
2024/03/21 04:02:06;;;;;;;4.47;1.40;;;;;;;-145.69;67.16;52274.06;5114244;28;20194;-80
2024/03/21 04:04:33;;;;;;;3.22;1.70;;;;;;;-145.69;66.98;52266.16;5114564;28;20266;-80
2024/03/21 04:06:59;;;;;;;6.30;1.40;;;;;;;-145.69;67.31;52258.22;5114772;28;20198;-80
2024/03/21 04:09:25;;;;;;;2.92;1.70;;;;;;;-145.69;68.12;52285.97;5114570;28;20204;-81
2024/03/21 04:11:51;;;;;;;3.08;1.90;;;;;;;-145.69;68.07;52234.47;5114197;28;20670;-80
2024/03/21 04:14:17;;;;;;;5.22;1.92;;;;;;;-145.69;67.86;52276.06;5114573;28;20194;-81
2024/03/21 04:16:43;;;;;;;2.00;1.50;;;;;;;-145.69;67.92;52280.00;5114236;28;20221;-80
2024/03/21 04:19:09;;;;;;;3.63;1.63;;;;;;;-145.69;67.75;52270.13;5114210;28;20213;-79
2024/03/21 04:21:36;;;;;;;2.80;1.60;;;;;;;-145.69;67.97;52258.22;5113275;28;20208;-79
2024/03/21 04:24:03;;;;;;;3.60;1.70;;;;;;;-145.69;68.40;52254.28;5124005;27;20284;-80
2024/03/21 04:26:28;;;;;;;2.60;1.60;;;;;;;-145.69;68.35;52264.16;5116100;27;20197;-79
2024/03/21 04:28:56;;;;;;;6.60;1.80;;;;;;;-145.69;68.50;52276.06;5114331;28;20216;-80
2024/03/21 04:31:23;;;;;;;1.50;1.30;;;;;;;-145.69;68.61;52242.38;5114272;28;20243;-80
2024/03/21 04:33:49;;;;;;;3.78;1.58;;;;;;;-145.69;68.06;52278.03;5114052;28;20240;-81
2024/03/21 04:36:15;;;;;;;4.07;1.70;;;;;;;-145.69;67.94;52270.13;5113732;28;20240;-79
2024/03/21 04:38:42;;;;;;;2.63;1.50;;;;;;;-145.69;68.92;52282.00;5113988;28;20552;-80
2024/03/21 04:41:09;;;;;;;7.30;1.90;;;;;;;-145.69;68.77;52270.13;5113992;28;20438;-80
2024/03/21 04:43:35;;;;;;;5.55;1.80;;;;;;;-145.69;67.80;52262.19;5126413;27;20532;-80
2024/03/21 04:46:02;;;;;;;4.35;1.63;;;;;;;-145.69;68.03;52256.25;5117179;27;20288;-80
2024/03/21 04:48:28;;;;;;;6.35;1.50;;;;;;;-145.69;68.02;52293.88;5113874;28;20197;-80
2024/03/21 04:50:55;;;;;;;1.48;1.38;;;;;;;-145.69;68.38;52262.19;5113489;28;20237;-80
2024/03/21 04:53:20;;;;;;;2.85;1.65;;;;;;;-145.69;68.32;52268.13;5113684;28;20250;-80
2024/03/21 04:55:48;;;;;;;4.38;1.73;;;;;;;-145.69;68.03;52274.06;5113372;28;20221;-80
2024/03/21 04:58:14;;;;;;;4.47;1.90;;;;;;;-145.69;67.65;52244.38;5113808;28;20198;-80
2024/03/21 05:00:40;;;;;;;1.75;1.30;;;;;;;-145.69;67.81;52266.16;5113524;28;20540;-79
2024/03/21 05:03:06;;;;;;;1.52;1.33;;;;;;;-145.69;67.70;52268.13;5113640;28;20202;-80
2024/03/21 05:05:32;;;;;;;4.35;1.80;;;;;;;-145.69;66.80;52291.91;5113588;28;20197;-79
2024/03/21 05:07:58;;;;;;;2.78;1.30;;;;;;;-145.69;67.30;52250.31;5112995;28;20197;-79
2024/03/21 05:10:24;;;;;;;3.05;1.38;;;;;;;-145.69;67.00;52309.72;5113448;28;20387;-80
2024/03/21 05:12:52;;;;;;;2.38;1.40;;;;;;;-145.69;67.17;52260.22;5112747;28;20198;-80
2024/03/21 05:15:18;;;;;;;2.60;1.80;;;;;;;-145.69;67.09;52276.06;5113486;28;20201;-80
2024/03/21 05:17:44;;;;;;;2.53;1.50;;;;;;;-145.69;66.82;52250.31;5098557;28;20751;-79
2024/03/21 05:20:12;;;;;;;4.60;2.00;;;;;;;-145.69;66.97;52285.97;5093221;28;20198;-79
2024/03/21 05:22:38;;;;;;;3.58;1.80;;;;;;;-145.69;67.63;52240.41;5092722;28;20671;-80
2024/03/21 05:25:07;;;;;;;4.22;1.58;;;;;;;-145.69;67.42;52270.13;5097984;28;20189;-79
2024/03/21 05:27:32;;;;;;;4.43;1.60;;;;;;;-145.69;66.83;52285.97;5113383;28;20197;-79
2024/03/21 05:30:00;;;;;;;2.00;1.52;;;;;;;-145.69;67.20;52272.09;5112455;28;20649;-79
2024/03/21 05:32:26;;;;;;;2.72;1.70;;;;;;;-145.69;66.34;52274.06;5112902;28;20664;-80
2024/03/21 05:34:52;;;;;;;3.97;1.80;;;;;;;-145.69;66.65;52242.38;5113103;28;20205;-79
2024/03/21 05:37:18;;;;;;;2.10;1.33;;;;;;;-145.69;65.93;52283.97;5112816;28;20221;-79
2024/03/21 05:39:47;;;;;;;3.38;1.77;;;;;;;-145.69;66.15;52291.91;5113121;28;20208;-79
2024/03/21 05:42:14;;;;;;;2.85;1.88;;;;;;;-145.69;65.61;52280.00;5112964;28;20200;-79
2024/03/21 05:44:41;;;;;;;5.90;1.70;;;;;;;-145.69;64.99;52291.91;5116223;28;20719;-79
2024/03/21 05:47:19;;;;;;;2.20;1.50;;;;;;;-145.69;64.69;52244.38;5112544;28;20193;-79
2024/03/21 05:49:46;;;;;;;5.80;1.60;;;;;;;-145.69;64.35;52254.28;5112934;28;20208;-79
2024/03/21 05:52:12;;;;;;;4.55;1.70;;;;;;;-145.69;64.79;52250.31;5113189;28;20229;-79
2024/03/21 05:54:38;;;;;;;3.30;1.65;;;;;;;-145.69;64.61;52262.19;5112858;28;20205;-79
2024/03/21 05:57:04;;;;;;;10.18;1.50;;;;;;;-145.69;63.00;52264.16;5112723;28;20572;-80
2024/03/21 05:59:30;;;;;;;4.05;2.00;;;;;;;-145.69;62.38;52246.34;5112854;28;20201;-80
2024/03/21 06:02:01;;;;;;;1.92;1.55;;;;;;;-145.69;62.89;52226.53;5112436;28;20652;-79
2024/03/21 06:04:29;;;;;;;7.93;1.80;;;;;;;-145.69;62.69;52254.28;5112693;28;20193;-80
2024/03/21 06:06:55;;;;;;;5.75;2.13;;;;;;;-145.69;62.38;52238.44;5112395;28;20659;-79
2024/03/21 06:09:22;;;;;;;4.18;1.77;;;;;;;-145.69;60.68;52252.28;5113081;28;20204;-79
2024/03/21 06:11:49;;;;;;;4.85;2.00;;;;;;;-145.69;60.61;52246.34;5112715;28;20203;-80
2024/03/21 06:14:15;;;;;;;3.70;2.10;;;;;;;-145.69;61.90;52246.34;5112497;28;20210;-80
2024/03/21 06:16:42;;;;;;;4.97;2.10;;;;;;;-145.69;64.61;52274.06;5112503;28;20232;-80
2024/03/21 06:19:08;;;;;;;3.85;2.30;;;;;;;-145.69;64.41;52218.63;5112626;28;20651;-80
2024/03/21 06:21:35;;;;;;;5.65;2.38;;;;;;;-145.69;63.91;52258.22;5112861;28;20201;-79
2024/03/21 06:24:01;;;;;;;5.68;2.30;;;;;;;-145.69;63.34;52266.16;5112829;28;20209;-79
2024/03/21 06:26:27;;;;;;;4.40;2.45;;;;;;;-145.69;63.91;52246.34;5112046;28;20655;-80
2024/03/21 06:28:53;;;;;;;4.63;2.22;;;;;;;-145.69;64.41;52256.25;5112767;28;20225;-79
2024/03/21 06:31:19;;;;;;;3.08;2.20;;;;;;;-145.69;64.40;52266.16;5112439;28;20663;-80
2024/03/21 06:33:45;;;;;;;5.53;3.03;;;;;;;-145.69;64.59;52274.06;5112561;28;20205;-79
2024/03/21 06:36:11;;;;;;;4.72;2.80;;;;;;;-145.69;65.17;52264.16;5112536;28;20221;-80
2024/03/21 06:38:38;;;;;;;3.67;2.63;;;;;;;-145.69;66.58;52238.44;5112578;28;20201;-79
2024/03/21 06:41:05;;;;;;;3.95;2.38;;;;;;;-145.69;65.91;52303.78;5112511;28;20233;-80
2024/03/21 06:43:30;;;;;;;2.85;2.20;;;;;;;-145.69;66.36;52226.53;5112618;28;20197;-80
2024/03/21 06:45:58;;;;;;;4.57;2.38;;;;;;;-145.69;65.93;52266.16;5115892;28;20197;-79
2024/03/21 06:48:24;;;;;;;7.03;3.47;;;;;;;-145.69;66.50;52250.31;5116292;28;20197;-80
2024/03/21 06:50:50;;;;;;;7.53;3.70;;;;;;;-145.69;66.57;52230.50;5116108;28;20236;-80
2024/03/21 06:53:16;;;;;;;16.48;6.60;;;;;;;-145.69;66.64;52248.34;5116120;28;20205;-80
2024/03/21 06:55:44;;;;;;;12.95;5.53;;;;;;;-145.69;67.00;52254.28;5115692;28;20198;-80
2024/03/21 06:58:09;;;;;;;28.70;9.75;;;;;;;-145.69;67.34;52272.09;5115822;27;20229;-80
2024/03/21 07:00:41;;;;;;;6.85;3.40;;;;;;;-145.69;68.79;52250.31;5115711;28;20551;-79
2024/03/21 07:03:07;;;;;;;6.82;3.00;;;;;;;-145.69;69.02;52258.22;5116122;28;20194;-79
2024/03/21 07:05:34;;;;;;;7.68;2.95;;;;;;;-145.69;69.25;52210.72;5115532;28;20567;-80
2024/03/21 07:08:01;;;;;;;6.82;3.40;;;;;;;-145.69;68.87;52268.13;5115858;28;20204;-80
2024/03/21 07:10:28;;;;;;;8.90;3.47;;;;;;;-145.69;70.87;52264.16;5115779;28;20610;-79
2024/03/21 07:12:55;;;;;;;7.03;3.58;;;;;;;-145.69;70.88;52240.41;5115485;27;20198;-79
2024/03/21 07:15:21;;;;;;;6.97;3.00;;;;;;;-145.69;71.18;52266.16;5115840;28;20652;-79
2024/03/21 07:17:47;;;;;;;6.32;3.33;;;;;;;-145.69;71.20;52242.38;5115578;28;20237;-78
2024/03/21 07:20:13;;;;;;;6.25;2.67;;;;;;;-145.69;71.57;52293.88;5115679;28;20197;-78
2024/03/21 07:22:39;;;;;;;5.13;2.70;;;;;;;-145.69;71.77;52287.94;5097763;28;20205;-79
2024/03/21 07:25:07;;;;;;;7.15;3.08;;;;;;;-145.69;72.25;52274.06;5104894;28;20236;-78
2024/03/21 07:27:33;;;;;;;6.78;2.80;;;;;;;-145.69;71.89;52274.06;5115508;28;20193;-78
2024/03/21 07:30:07;;;;;;;5.10;2.60;;;;;;;-145.69;71.71;52262.19;5115465;28;20209;-78
2024/03/21 07:32:33;;;;;;;6.85;2.88;;;;;;;-145.69;72.92;52270.13;5115394;28;20189;-79
2024/03/21 07:34:59;;;;;;;5.55;3.25;;;;;;;-145.69;72.96;52246.34;5115315;28;20208;-79
2024/03/21 07:37:24;;;;;;;6.30;3.17;;;;;;;-145.69;73.68;52313.69;5115185;28;20710;-79
2024/03/21 07:39:51;;;;;;;6.10;2.80;;;;;;;-145.69;73.92;52258.22;5115071;28;20197;-80
2024/03/21 07:42:17;;;;;;;8.50;4.00;;;;;;;-145.69;73.47;52248.34;5114993;28;20568;-79
2024/03/21 07:44:43;;;;;;;6.97;3.08;;;;;;;-145.69;73.85;52278.03;5115190;28;20197;-78
2024/03/21 07:47:10;;;;;;;4.72;2.50;;;;;;;-145.69;74.02;52278.03;5115167;28;20193;-80
2024/03/21 07:49:37;;;;;;;5.82;2.90;;;;;;;-145.69;73.26;52234.47;5115203;28;20202;-80
2024/03/21 07:52:03;;;;;;;5.13;2.50;;;;;;;-145.69;72.82;52222.59;5114791;28;20708;-79
2024/03/21 07:54:30;;;;;;;4.15;2.10;;;;;;;-145.69;72.34;52258.22;5114154;28;21889;-79
2024/03/21 07:56:57;;;;;;;5.53;3.03;;;;;;;-145.69;72.02;52252.28;5111460;28;20307;-78
2024/03/21 07:59:24;;;;;;;5.03;2.28;;;;;;;-145.69;70.43;52234.47;5114183;28;20217;-79
2024/03/21 08:01:49;;;;;;;5.07;2.85;;;;;;;-145.69;70.71;52230.50;5114703;28;20201;-78
2024/03/21 08:04:17;;;;;;;3.90;2.40;;;;;;;-145.69;69.53;52254.28;5114823;28;20572;-80
2024/03/21 08:06:43;;;;;;;3.22;2.17;;;;;;;-145.69;68.89;52254.28;5114881;28;20205;-79
2024/03/21 08:09:09;;;;;;;3.30;2.20;;;;;;;-145.69;68.42;52234.47;5114534;28;20666;-79
2024/03/21 08:11:35;;;;;;;3.38;1.92;;;;;;;-145.69;68.05;52250.31;5114045;28;20200;-80
2024/03/21 08:14:02;;;;;;;3.10;2.00;;;;;;;-145.69;66.41;52260.22;5113337;27;20247;-80
2024/03/21 08:16:27;;;;;;;3.75;1.88;;;;;;;-145.69;63.61;52252.28;5114169;28;20255;-80
2024/03/21 08:18:54;;;;;;;5.88;2.25;;;;;;;-145.69;62.05;52198.81;5114815;28;20197;-80
2024/03/21 08:21:21;;;;;;;7.20;2.65;;;;;;;-145.69;61.42;52214.66;5114329;28;20856;-79
2024/03/21 08:23:48;;;;;;;6.40;2.25;;;;;;;-145.69;59.89;52248.34;5114205;28;20229;-79
2024/03/21 08:26:13;;;;;;;11.00;2.42;;;;;;;-145.69;59.22;52214.66;5114390;28;20194;-79
2024/03/21 08:28:40;;;;;;;5.68;3.10;;;;;;;-145.69;59.31;52232.50;5114481;28;20233;-78
2024/03/21 08:31:05;;;;;;;3.72;2.10;;;;;;;-145.69;57.87;52218.63;5114068;28;20209;-79
2024/03/21 08:33:32;;;;;;;2.90;2.00;;;;;;;-145.69;56.06;52188.91;5114044;28;20205;-79
2024/03/21 08:35:57;;;;;;;4.45;1.83;;;;;;;-145.69;54.31;52230.50;5109656;27;20272;-79
2024/03/21 08:38:25;;;;;;;5.65;2.70;;;;;;;-145.69;54.33;52194.88;5113786;28;20237;-79
2024/03/21 08:40:51;;;;;;;3.22;1.83;;;;;;;-145.69;53.42;52181.00;5114025;28;20225;-81
2024/03/21 08:43:18;;;;;;;2.47;1.50;;;;;;;-145.69;53.09;52192.88;5114142;28;20197;-80
2024/03/21 08:45:45;;;;;;;3.05;1.60;;;;;;;-145.69;52.93;52194.88;5113930;28;20568;-80
2024/03/21 08:48:13;;;;;;;8.90;2.30;;;;;;;-145.69;52.30;52165.16;5113896;28;20728;-79
2024/03/21 08:50:39;;;;;;;3.65;2.00;;;;;;;-145.69;52.57;52177.03;5110417;28;20247;-81
2024/03/21 08:53:05;;;;;;;6.57;1.90;;;;;;;-145.69;51.75;52190.91;5113457;28;20205;-80
2024/03/21 08:55:33;;;;;;;5.80;2.17;;;;;;;-145.69;51.05;52161.19;5113152;28;20652;-81
2024/03/21 08:58:00;;;;;;;3.88;1.60;;;;;;;-145.69;50.54;52167.13;5113670;28;20229;-81
2024/03/21 09:00:25;;;;;;;4.65;1.83;;;;;;;-145.69;50.92;52155.25;5113244;28;20201;-80
2024/03/21 09:02:52;;;;;;;3.72;2.30;;;;;;;-145.69;49.99;52186.94;5113732;28;20254;-80
2024/03/21 09:05:17;;;;;;;3.20;2.05;;;;;;;-145.69;50.77;52184.97;5113560;28;20202;-80
2024/03/21 09:07:44;;;;;;;3.55;2.25;;;;;;;-145.69;49.51;52179.03;5100087;28;20255;-81
2024/03/21 09:10:10;;;;;;;3.90;1.85;;;;;;;-145.69;50.11;52163.19;5105238;28;20205;-80
2024/03/21 09:12:42;;;;;;;4.55;1.80;;;;;;;-145.69;50.71;52169.13;5113229;28;20660;-80
2024/03/21 09:15:09;;;;;;;3.65;1.92;;;;;;;-145.69;51.23;52165.16;5113274;27;20537;-84
2024/03/21 09:17:35;;;;;;;3.53;1.90;;;;;;;-145.69;50.49;52210.72;5113369;28;20232;-80
2024/03/21 09:20:01;;;;;;;4.57;1.48;;;;;;;-145.69;51.28;52179.03;5112845;28;20560;-80
2024/03/21 09:22:27;;;;;;;4.05;2.22;;;;;;;-145.69;50.18;52181.00;5113529;28;20201;-79
2024/03/21 09:24:53;;;;;;;8.23;2.40;;;;;;;-145.69;50.98;52186.94;5098915;28;20564;-79
2024/03/21 09:27:21;;;;;;;4.63;2.20;;;;;;;-145.69;52.63;52175.06;5092682;28;20202;-80
2024/03/21 09:29:48;;;;;;;4.22;2.03;;;;;;;-145.69;51.85;52179.03;5092800;28;20198;-80
2024/03/21 09:32:15;;;;;;;3.63;2.17;;;;;;;-145.69;51.92;52167.13;5095089;28;20248;-80
2024/03/21 09:34:42;;;;;;;3.67;2.35;;;;;;;-145.69;53.06;52196.84;5092732;28;20669;-80
2024/03/21 09:37:09;;;;;;;6.68;3.08;;;;;;;-145.69;52.40;52175.06;5092665;28;20217;-80
2024/03/21 09:39:34;;;;;;;9.90;2.30;;;;;;;-145.69;52.36;52177.03;5102160;28;20197;-80
2024/03/21 09:42:05;;;;;;;4.80;2.17;;;;;;;-145.69;52.42;52190.91;5097827;27;20593;-80
2024/03/21 09:44:31;;;;;;;3.65;2.28;;;;;;;-145.69;52.95;52192.88;5092747;28;20208;-80
2024/03/21 09:47:01;;;;;;;4.00;2.15;;;;;;;-145.69;53.03;52184.97;5092592;28;20220;-81
2024/03/21 09:49:28;;;;;;;5.78;2.88;;;;;;;-145.69;52.10;52175.06;5092599;28;20230;-79
2024/03/21 09:51:55;;;;;;;8.60;2.30;;;;;;;-145.69;50.43;52186.94;5092488;28;20226;-79
2024/03/21 09:54:21;;;;;;;4.63;2.65;;;;;;;-145.69;49.07;52155.25;5092610;28;20194;-80
2024/03/21 09:56:47;;;;;;;4.93;2.33;;;;;;;-145.69;48.64;52151.28;5092482;28;20208;-80
2024/03/21 09:59:13;;;;;;;3.17;2.15;;;;;;;-145.69;47.88;52147.34;5093162;28;20288;-80
2024/03/21 10:01:40;;;;;;;3.83;2.58;;;;;;;-145.69;48.08;52107.72;5103786;28;20615;-80
2024/03/21 10:04:07;;;;;;;5.53;2.70;;;;;;;-145.69;47.20;52179.03;5117692;28;20655;-79
2024/03/21 10:06:43;;;;;;;3.42;2.40;;;;;;;-145.69;46.21;52149.31;5116244;28;20276;-79
2024/03/21 10:09:09;;;;;;;5.75;2.55;;;;;;;-145.69;45.77;52155.25;5112554;28;20197;-82
2024/03/21 10:11:35;;;;;;;4.10;2.60;;;;;;;-145.69;44.98;52171.09;5112393;28;20660;-81
2024/03/21 10:14:01;;;;;;;5.93;3.15;;;;;;;-145.69;45.52;52117.63;5110981;28;20189;-82
2024/03/21 10:16:29;;;;;;;7.00;2.80;;;;;;;-145.69;45.31;52149.31;5111428;28;20204;-81
2024/03/21 10:18:55;;;;;;;7.50;3.40;;;;;;;-145.69;46.05;52129.50;5112303;28;20236;-81
2024/03/21 10:21:23;;;;;;;5.65;2.50;;;;;;;-145.69;45.87;52147.34;5116350;28;20197;-80
2024/03/21 10:23:49;;;;;;;6.75;3.35;;;;;;;-145.69;45.10;52165.16;5116336;28;20201;-80
2024/03/21 10:26:18;;;;;;;5.93;2.90;;;;;;;-145.69;45.01;52135.47;5116468;28;20567;-80
2024/03/21 10:28:44;;;;;;;7.53;3.20;;;;;;;-145.69;44.88;52119.63;5116602;28;20288;-81
2024/03/21 10:31:13;;;;;;;5.95;2.80;;;;;;;-145.69;44.75;52131.50;5119850;27;20200;-80
2024/03/21 10:33:39;;;;;;;6.00;3.70;;;;;;;-145.69;45.36;52151.28;5116670;28;20201;-80
2024/03/21 10:36:06;;;;;;;5.55;2.70;;;;;;;-145.69;46.00;52179.03;5116456;28;20246;-80
2024/03/21 10:38:33;;;;;;;13.93;3.15;;;;;;;-145.69;46.61;52153.28;5116200;28;20622;-80
2024/03/21 10:41:04;;;;;;;5.32;3.40;;;;;;;-145.69;45.78;52139.41;5116227;28;20208;-80
2024/03/21 10:43:32;;;;;;;8.18;2.88;;;;;;;-145.69;45.05;52151.28;5116266;28;20205;-80
2024/03/21 10:45:59;;;;;;;4.68;3.40;;;;;;;-145.69;45.50;52155.25;5116338;28;20205;-80
2024/03/21 10:48:28;;;;;;;5.45;3.25;;;;;;;-145.69;45.91;52121.59;5116376;28;20197;-80
2024/03/21 10:50:55;;;;;;;5.10;3.17;;;;;;;-145.69;45.63;52171.09;5116181;28;20236;-80
2024/03/21 10:53:22;;;;;;;6.50;3.10;;;;;;;-145.69;46.58;52175.06;5116503;28;20197;-81
2024/03/21 10:55:53;;;;;;;5.95;2.78;;;;;;;-145.69;48.14;52175.06;5115871;28;20205;-80
2024/03/21 10:58:19;;;;;;;5.75;3.15;;;;;;;-145.69;46.28;52157.25;5115901;28;20614;-81
2024/03/21 11:00:53;;;;;;;10.07;3.38;;;;;;;-145.69;46.71;52167.13;5116619;27;20533;-81
2024/03/21 11:03:19;;;;;;;10.52;3.10;;;;;;;-145.69;46.62;52145.34;5115475;28;20198;-81
2024/03/21 11:05:49;;;;;;;4.82;2.88;;;;;;;-145.69;46.33;52141.41;5115546;28;20215;-81
2024/03/21 11:08:28;;;;;;;5.43;2.65;;;;;;;-145.69;45.19;52151.28;5115830;28;20200;-81
2024/03/21 11:10:59;;;;;;;7.20;2.88;;;;;;;-145.69;43.50;52129.50;5116085;28;20655;-81
2024/03/21 11:13:25;;;;;;;6.88;2.95;;;;;;;-145.69;42.36;52137.44;5115984;28;20662;-81
2024/03/21 11:15:53;;;;;;;4.82;2.28;;;;;;;-145.69;42.09;52117.63;5115711;28;20296;-81
2024/03/21 11:18:19;;;;;;;8.27;2.50;;;;;;;-145.69;41.57;52155.25;5115617;28;20229;-81
2024/03/21 11:20:46;;;;;;;5.05;2.55;;;;;;;-145.69;42.22;52151.28;5115386;28;20208;-81